sensor_id;sensor_type;location;lat;lon;timestamp;P1;durP1;ratioP1;P2;durP2;ratioP2
32535;SDS011;18974;50.838;4.636;2024-01-27T00:01:49;30.67;;;13.60;;
32535;SDS011;18974;50.838;4.636;2024-01-27T00:04:15;41.72;;;13.30;;
32535;SDS011;18974;50.838;4.636;2024-01-27T00:06:41;36.25;;;13.10;;
32535;SDS011;18974;50.838;4.636;2024-01-27T00:09:07;31.40;;;12.63;;
32535;SDS011;18974;50.838;4.636;2024-01-27T00:11:33;39.67;;;13.52;;
32535;SDS011;18974;50.838;4.636;2024-01-27T00:13:58;33.47;;;12.95;;
32535;SDS011;18974;50.838;4.636;2024-01-27T00:16:24;33.67;;;13.07;;
32535;SDS011;18974;50.838;4.636;2024-01-27T00:18:50;44.90;;;13.45;;
32535;SDS011;18974;50.838;4.636;2024-01-27T00:21:16;27.70;;;12.48;;
32535;SDS011;18974;50.838;4.636;2024-01-27T00:23:42;35.30;;;12.38;;
32535;SDS011;18974;50.838;4.636;2024-01-27T00:26:07;30.48;;;11.48;;
32535;SDS011;18974;50.838;4.636;2024-01-27T00:28:33;26.63;;;11.52;;
32535;SDS011;18974;50.838;4.636;2024-01-27T00:30:59;31.42;;;12.02;;
32535;SDS011;18974;50.838;4.636;2024-01-27T00:33:25;33.17;;;12.23;;
32535;SDS011;18974;50.838;4.636;2024-01-27T00:35:51;32.90;;;12.35;;
32535;SDS011;18974;50.838;4.636;2024-01-27T00:38:17;34.72;;;12.27;;
32535;SDS011;18974;50.838;4.636;2024-01-27T00:40:42;31.35;;;11.93;;
32535;SDS011;18974;50.838;4.636;2024-01-27T00:43:08;26.35;;;12.40;;
32535;SDS011;18974;50.838;4.636;2024-01-27T00:45:34;35.88;;;12.50;;
32535;SDS011;18974;50.838;4.636;2024-01-27T00:48:00;34.65;;;11.23;;
32535;SDS011;18974;50.838;4.636;2024-01-27T00:50:26;28.50;;;10.38;;
32535;SDS011;18974;50.838;4.636;2024-01-27T00:52:52;30.25;;;10.38;;
32535;SDS011;18974;50.838;4.636;2024-01-27T00:55:17;38.08;;;12.18;;
32535;SDS011;18974;50.838;4.636;2024-01-27T00:57:43;31.00;;;11.23;;
32535;SDS011;18974;50.838;4.636;2024-01-27T01:00:09;32.60;;;10.18;;
32535;SDS011;18974;50.838;4.636;2024-01-27T01:02:36;38.97;;;10.13;;
32535;SDS011;18974;50.838;4.636;2024-01-27T01:05:02;28.08;;;11.43;;
32535;SDS011;18974;50.838;4.636;2024-01-27T01:07:31;38.17;;;11.18;;
32535;SDS011;18974;50.838;4.636;2024-01-27T01:09:57;31.70;;;11.48;;
32535;SDS011;18974;50.838;4.636;2024-01-27T01:12:23;32.15;;;10.80;;
32535;SDS011;18974;50.838;4.636;2024-01-27T01:14:50;28.75;;;10.43;;
32535;SDS011;18974;50.838;4.636;2024-01-27T01:17:16;31.88;;;10.23;;
32535;SDS011;18974;50.838;4.636;2024-01-27T01:19:42;34.55;;;11.35;;
32535;SDS011;18974;50.838;4.636;2024-01-27T01:22:08;32.03;;;10.50;;
32535;SDS011;18974;50.838;4.636;2024-01-27T01:24:34;33.17;;;10.95;;
32535;SDS011;18974;50.838;4.636;2024-01-27T01:26:59;35.28;;;11.32;;
32535;SDS011;18974;50.838;4.636;2024-01-27T01:29:25;35.78;;;11.18;;
32535;SDS011;18974;50.838;4.636;2024-01-27T01:31:51;33.17;;;11.52;;
32535;SDS011;18974;50.838;4.636;2024-01-27T01:34:17;25.60;;;10.65;;
32535;SDS011;18974;50.838;4.636;2024-01-27T01:36:43;32.72;;;10.82;;
32535;SDS011;18974;50.838;4.636;2024-01-27T01:39:10;32.28;;;10.80;;
32535;SDS011;18974;50.838;4.636;2024-01-27T01:41:38;34.65;;;10.90;;
32535;SDS011;18974;50.838;4.636;2024-01-27T01:44:04;30.67;;;11.02;;
32535;SDS011;18974;50.838;4.636;2024-01-27T01:46:29;27.75;;;11.38;;
32535;SDS011;18974;50.838;4.636;2024-01-27T01:48:55;39.42;;;11.05;;
32535;SDS011;18974;50.838;4.636;2024-01-27T01:51:22;31.63;;;11.85;;
32535;SDS011;18974;50.838;4.636;2024-01-27T01:53:48;30.63;;;11.50;;
32535;SDS011;18974;50.838;4.636;2024-01-27T01:56:17;35.53;;;12.45;;
32535;SDS011;18974;50.838;4.636;2024-01-27T01:58:44;31.65;;;12.00;;
32535;SDS011;18974;50.838;4.636;2024-01-27T02:01:10;37.10;;;11.40;;
32535;SDS011;18974;50.838;4.636;2024-01-27T02:03:35;33.55;;;10.57;;
32535;SDS011;18974;50.838;4.636;2024-01-27T02:06:01;29.58;;;10.13;;
32535;SDS011;18974;50.838;4.636;2024-01-27T02:08:27;30.50;;;10.65;;
32535;SDS011;18974;50.838;4.636;2024-01-27T02:10:52;43.65;;;12.25;;
32535;SDS011;18974;50.838;4.636;2024-01-27T02:13:22;28.52;;;10.35;;
32535;SDS011;18974;50.838;4.636;2024-01-27T02:15:49;32.45;;;10.65;;
32535;SDS011;18974;50.838;4.636;2024-01-27T02:18:15;32.20;;;9.65;;
32535;SDS011;18974;50.838;4.636;2024-01-27T02:20:42;31.30;;;10.15;;
32535;SDS011;18974;50.838;4.636;2024-01-27T02:23:07;29.05;;;10.07;;
32535;SDS011;18974;50.838;4.636;2024-01-27T02:25:34;30.63;;;10.65;;
32535;SDS011;18974;50.838;4.636;2024-01-27T02:28:00;30.35;;;11.20;;
32535;SDS011;18974;50.838;4.636;2024-01-27T02:30:27;37.20;;;10.50;;
32535;SDS011;18974;50.838;4.636;2024-01-27T02:32:55;36.72;;;10.95;;
32535;SDS011;18974;50.838;4.636;2024-01-27T02:35:22;37.83;;;10.57;;
32535;SDS011;18974;50.838;4.636;2024-01-27T02:37:47;35.53;;;11.20;;
32535;SDS011;18974;50.838;4.636;2024-01-27T02:40:13;37.40;;;9.98;;
32535;SDS011;18974;50.838;4.636;2024-01-27T02:42:39;41.78;;;11.38;;
32535;SDS011;18974;50.838;4.636;2024-01-27T02:45:07;36.00;;;10.98;;
32535;SDS011;18974;50.838;4.636;2024-01-27T02:47:33;30.70;;;10.60;;
32535;SDS011;18974;50.838;4.636;2024-01-27T02:49:59;32.13;;;10.63;;
32535;SDS011;18974;50.838;4.636;2024-01-27T02:52:24;30.80;;;9.82;;
32535;SDS011;18974;50.838;4.636;2024-01-27T02:54:50;29.48;;;10.02;;
32535;SDS011;18974;50.838;4.636;2024-01-27T02:57:16;22.75;;;9.93;;
32535;SDS011;18974;50.838;4.636;2024-01-27T02:59:44;34.40;;;10.43;;
32535;SDS011;18974;50.838;4.636;2024-01-27T03:02:10;40.63;;;11.27;;
32535;SDS011;18974;50.838;4.636;2024-01-27T03:04:36;33.45;;;10.70;;
32535;SDS011;18974;50.838;4.636;2024-01-27T03:07:02;34.40;;;9.93;;
32535;SDS011;18974;50.838;4.636;2024-01-27T03:09:28;26.67;;;9.15;;
32535;SDS011;18974;50.838;4.636;2024-01-27T03:11:53;34.65;;;10.48;;
32535;SDS011;18974;50.838;4.636;2024-01-27T03:14:19;40.20;;;10.38;;
32535;SDS011;18974;50.838;4.636;2024-01-27T03:16:45;33.45;;;9.48;;
32535;SDS011;18974;50.838;4.636;2024-01-27T03:19:10;33.08;;;9.48;;
32535;SDS011;18974;50.838;4.636;2024-01-27T03:21:36;37.03;;;10.55;;
32535;SDS011;18974;50.838;4.636;2024-01-27T03:24:02;31.13;;;8.65;;
32535;SDS011;18974;50.838;4.636;2024-01-27T03:26:28;30.02;;;10.18;;
32535;SDS011;18974;50.838;4.636;2024-01-27T03:28:53;40.13;;;10.02;;
32535;SDS011;18974;50.838;4.636;2024-01-27T03:31:19;32.63;;;9.88;;
32535;SDS011;18974;50.838;4.636;2024-01-27T03:33:45;28.63;;;9.50;;
32535;SDS011;18974;50.838;4.636;2024-01-27T03:36:13;23.23;;;9.70;;
32535;SDS011;18974;50.838;4.636;2024-01-27T03:38:42;36.30;;;10.20;;
32535;SDS011;18974;50.838;4.636;2024-01-27T03:41:08;32.67;;;10.95;;
32535;SDS011;18974;50.838;4.636;2024-01-27T03:43:34;33.95;;;9.85;;
32535;SDS011;18974;50.838;4.636;2024-01-27T03:46:00;27.15;;;9.65;;
32535;SDS011;18974;50.838;4.636;2024-01-27T03:48:25;37.58;;;10.32;;
32535;SDS011;18974;50.838;4.636;2024-01-27T03:50:51;34.08;;;9.13;;
32535;SDS011;18974;50.838;4.636;2024-01-27T03:53:17;29.20;;;10.02;;
32535;SDS011;18974;50.838;4.636;2024-01-27T03:55:42;31.92;;;10.38;;
32535;SDS011;18974;50.838;4.636;2024-01-27T03:58:08;30.83;;;10.50;;
32535;SDS011;18974;50.838;4.636;2024-01-27T04:00:34;26.70;;;10.48;;
32535;SDS011;18974;50.838;4.636;2024-01-27T04:02:59;33.03;;;11.20;;
32535;SDS011;18974;50.838;4.636;2024-01-27T04:05:26;28.15;;;9.90;;
32535;SDS011;18974;50.838;4.636;2024-01-27T04:07:52;30.40;;;9.80;;
32535;SDS011;18974;50.838;4.636;2024-01-27T04:10:18;24.70;;;9.85;;
32535;SDS011;18974;50.838;4.636;2024-01-27T04:12:44;33.85;;;10.80;;
32535;SDS011;18974;50.838;4.636;2024-01-27T04:15:10;32.00;;;10.45;;
32535;SDS011;18974;50.838;4.636;2024-01-27T04:17:36;30.23;;;10.63;;
32535;SDS011;18974;50.838;4.636;2024-01-27T04:20:02;31.48;;;10.50;;
32535;SDS011;18974;50.838;4.636;2024-01-27T04:22:29;23.08;;;10.25;;
32535;SDS011;18974;50.838;4.636;2024-01-27T04:24:55;25.92;;;10.95;;
32535;SDS011;18974;50.838;4.636;2024-01-27T04:27:21;32.20;;;10.85;;
32535;SDS011;18974;50.838;4.636;2024-01-27T04:29:47;35.58;;;10.93;;
32535;SDS011;18974;50.838;4.636;2024-01-27T04:32:13;32.35;;;10.43;;
32535;SDS011;18974;50.838;4.636;2024-01-27T04:34:39;24.67;;;10.63;;
32535;SDS011;18974;50.838;4.636;2024-01-27T04:37:04;30.00;;;10.57;;
32535;SDS011;18974;50.838;4.636;2024-01-27T04:39:30;31.88;;;11.30;;
32535;SDS011;18974;50.838;4.636;2024-01-27T04:41:56;30.48;;;10.30;;
32535;SDS011;18974;50.838;4.636;2024-01-27T04:44:23;36.17;;;11.57;;
32535;SDS011;18974;50.838;4.636;2024-01-27T04:46:49;27.98;;;11.18;;
32535;SDS011;18974;50.838;4.636;2024-01-27T04:49:15;34.95;;;11.32;;
32535;SDS011;18974;50.838;4.636;2024-01-27T04:51:41;33.42;;;10.32;;
32535;SDS011;18974;50.838;4.636;2024-01-27T04:54:07;33.58;;;10.93;;
32535;SDS011;18974;50.838;4.636;2024-01-27T04:56:33;33.78;;;11.38;;
32535;SDS011;18974;50.838;4.636;2024-01-27T04:58:59;29.50;;;10.93;;
32535;SDS011;18974;50.838;4.636;2024-01-27T05:01:24;32.20;;;10.63;;
32535;SDS011;18974;50.838;4.636;2024-01-27T05:03:50;35.33;;;11.48;;
32535;SDS011;18974;50.838;4.636;2024-01-27T05:06:16;36.42;;;13.45;;
32535;SDS011;18974;50.838;4.636;2024-01-27T05:08:42;27.52;;;10.20;;
32535;SDS011;18974;50.838;4.636;2024-01-27T05:11:09;26.25;;;10.63;;
32535;SDS011;18974;50.838;4.636;2024-01-27T05:13:34;37.60;;;12.23;;
32535;SDS011;18974;50.838;4.636;2024-01-27T05:16:02;28.73;;;10.77;;
32535;SDS011;18974;50.838;4.636;2024-01-27T05:18:28;34.30;;;10.88;;
32535;SDS011;18974;50.838;4.636;2024-01-27T05:20:54;43.33;;;12.00;;
32535;SDS011;18974;50.838;4.636;2024-01-27T05:23:20;33.45;;;11.23;;
32535;SDS011;18974;50.838;4.636;2024-01-27T05:25:45;43.28;;;12.20;;
32535;SDS011;18974;50.838;4.636;2024-01-27T05:28:11;33.53;;;12.32;;
32535;SDS011;18974;50.838;4.636;2024-01-27T05:30:37;43.97;;;13.38;;
32535;SDS011;18974;50.838;4.636;2024-01-27T05:33:02;34.85;;;12.73;;
32535;SDS011;18974;50.838;4.636;2024-01-27T05:35:29;33.97;;;12.40;;
32535;SDS011;18974;50.838;4.636;2024-01-27T05:37:54;43.35;;;11.90;;
32535;SDS011;18974;50.838;4.636;2024-01-27T05:40:20;35.80;;;11.60;;
32535;SDS011;18974;50.838;4.636;2024-01-27T05:42:46;35.58;;;12.45;;
32535;SDS011;18974;50.838;4.636;2024-01-27T05:45:11;31.15;;;11.95;;
32535;SDS011;18974;50.838;4.636;2024-01-27T05:47:38;37.83;;;12.10;;
32535;SDS011;18974;50.838;4.636;2024-01-27T05:50:03;36.08;;;11.07;;
32535;SDS011;18974;50.838;4.636;2024-01-27T05:52:30;30.30;;;10.85;;
32535;SDS011;18974;50.838;4.636;2024-01-27T05:54:55;35.63;;;12.13;;
32535;SDS011;18974;50.838;4.636;2024-01-27T05:57:21;27.60;;;10.93;;
32535;SDS011;18974;50.838;4.636;2024-01-27T05:59:47;30.88;;;11.32;;
32535;SDS011;18974;50.838;4.636;2024-01-27T06:02:13;27.70;;;10.57;;
32535;SDS011;18974;50.838;4.636;2024-01-27T06:04:38;32.15;;;12.18;;
32535;SDS011;18974;50.838;4.636;2024-01-27T06:07:04;33.35;;;12.00;;
32535;SDS011;18974;50.838;4.636;2024-01-27T06:09:30;30.33;;;11.70;;
32535;SDS011;18974;50.838;4.636;2024-01-27T06:11:58;35.15;;;12.35;;
32535;SDS011;18974;50.838;4.636;2024-01-27T06:14:25;37.75;;;11.95;;
32535;SDS011;18974;50.838;4.636;2024-01-27T06:16:51;34.45;;;11.32;;
32535;SDS011;18974;50.838;4.636;2024-01-27T06:19:17;35.58;;;12.43;;
32535;SDS011;18974;50.838;4.636;2024-01-27T06:21:43;29.95;;;11.45;;
32535;SDS011;18974;50.838;4.636;2024-01-27T06:24:09;32.47;;;12.63;;
32535;SDS011;18974;50.838;4.636;2024-01-27T06:26:34;35.65;;;12.57;;
32535;SDS011;18974;50.838;4.636;2024-01-27T06:29:00;30.90;;;11.68;;
32535;SDS011;18974;50.838;4.636;2024-01-27T06:31:27;29.52;;;11.23;;
32535;SDS011;18974;50.838;4.636;2024-01-27T06:33:53;27.27;;;11.63;;
32535;SDS011;18974;50.838;4.636;2024-01-27T06:36:18;40.95;;;12.38;;
32535;SDS011;18974;50.838;4.636;2024-01-27T06:38:47;34.08;;;11.63;;
32535;SDS011;18974;50.838;4.636;2024-01-27T06:41:13;41.78;;;11.52;;
32535;SDS011;18974;50.838;4.636;2024-01-27T06:43:38;31.45;;;12.88;;
32535;SDS011;18974;50.838;4.636;2024-01-27T06:46:04;30.08;;;11.63;;
32535;SDS011;18974;50.838;4.636;2024-01-27T06:48:30;32.47;;;12.68;;
32535;SDS011;18974;50.838;4.636;2024-01-27T06:50:56;38.50;;;11.00;;
32535;SDS011;18974;50.838;4.636;2024-01-27T06:53:21;24.60;;;10.25;;
32535;SDS011;18974;50.838;4.636;2024-01-27T06:55:47;28.90;;;10.68;;
32535;SDS011;18974;50.838;4.636;2024-01-27T06:58:13;40.30;;;12.25;;
32535;SDS011;18974;50.838;4.636;2024-01-27T07:00:38;32.58;;;11.82;;
32535;SDS011;18974;50.838;4.636;2024-01-27T07:03:04;39.92;;;12.40;;
32535;SDS011;18974;50.838;4.636;2024-01-27T07:05:30;33.05;;;12.55;;
32535;SDS011;18974;50.838;4.636;2024-01-27T07:07:58;40.80;;;12.15;;
32535;SDS011;18974;50.838;4.636;2024-01-27T07:10:23;36.50;;;12.15;;
32535;SDS011;18974;50.838;4.636;2024-01-27T07:12:49;38.42;;;11.85;;
32535;SDS011;18974;50.838;4.636;2024-01-27T07:15:15;31.27;;;11.60;;
32535;SDS011;18974;50.838;4.636;2024-01-27T07:17:41;46.72;;;12.45;;
32535;SDS011;18974;50.838;4.636;2024-01-27T07:20:07;35.83;;;11.82;;
32535;SDS011;18974;50.838;4.636;2024-01-27T07:22:33;31.23;;;11.63;;
32535;SDS011;18974;50.838;4.636;2024-01-27T07:24:59;32.35;;;11.65;;
32535;SDS011;18974;50.838;4.636;2024-01-27T07:27:24;25.92;;;11.70;;
32535;SDS011;18974;50.838;4.636;2024-01-27T07:29:50;30.73;;;11.50;;
32535;SDS011;18974;50.838;4.636;2024-01-27T07:32:16;36.85;;;11.55;;
32535;SDS011;18974;50.838;4.636;2024-01-27T07:34:42;30.25;;;11.43;;
32535;SDS011;18974;50.838;4.636;2024-01-27T07:37:08;30.17;;;11.50;;
32535;SDS011;18974;50.838;4.636;2024-01-27T07:39:35;37.45;;;11.70;;
32535;SDS011;18974;50.838;4.636;2024-01-27T07:42:00;32.53;;;11.48;;
32535;SDS011;18974;50.838;4.636;2024-01-27T07:44:26;27.88;;;10.82;;
32535;SDS011;18974;50.838;4.636;2024-01-27T07:46:52;25.95;;;10.65;;
32535;SDS011;18974;50.838;4.636;2024-01-27T07:49:18;30.35;;;10.43;;
32535;SDS011;18974;50.838;4.636;2024-01-27T07:51:44;32.97;;;11.88;;
32535;SDS011;18974;50.838;4.636;2024-01-27T07:54:10;38.67;;;11.93;;
32535;SDS011;18974;50.838;4.636;2024-01-27T07:56:37;28.35;;;10.73;;
32535;SDS011;18974;50.838;4.636;2024-01-27T07:59:02;31.27;;;11.98;;
32535;SDS011;18974;50.838;4.636;2024-01-27T08:01:28;31.05;;;11.27;;
32535;SDS011;18974;50.838;4.636;2024-01-27T08:03:54;29.33;;;11.63;;
32535;SDS011;18974;50.838;4.636;2024-01-27T08:06:27;36.97;;;11.25;;
32535;SDS011;18974;50.838;4.636;2024-01-27T08:08:54;36.25;;;10.75;;
32535;SDS011;18974;50.838;4.636;2024-01-27T08:11:20;41.72;;;12.57;;
32535;SDS011;18974;50.838;4.636;2024-01-27T08:13:46;31.23;;;10.45;;
32535;SDS011;18974;50.838;4.636;2024-01-27T08:16:12;39.90;;;11.50;;
32535;SDS011;18974;50.838;4.636;2024-01-27T08:18:39;38.08;;;11.93;;
32535;SDS011;18974;50.838;4.636;2024-01-27T08:21:07;34.00;;;11.05;;
32535;SDS011;18974;50.838;4.636;2024-01-27T08:23:33;32.28;;;10.82;;
32535;SDS011;18974;50.838;4.636;2024-01-27T08:25:59;45.88;;;11.93;;
32535;SDS011;18974;50.838;4.636;2024-01-27T08:28:25;36.78;;;11.65;;
32535;SDS011;18974;50.838;4.636;2024-01-27T08:30:50;35.72;;;12.30;;
32535;SDS011;18974;50.838;4.636;2024-01-27T08:33:16;51.42;;;12.20;;
32535;SDS011;18974;50.838;4.636;2024-01-27T08:35:42;30.88;;;11.52;;
32535;SDS011;18974;50.838;4.636;2024-01-27T08:38:07;31.65;;;10.52;;
32535;SDS011;18974;50.838;4.636;2024-01-27T08:40:34;30.10;;;11.25;;
32535;SDS011;18974;50.838;4.636;2024-01-27T08:43:00;43.75;;;13.52;;
32535;SDS011;18974;50.838;4.636;2024-01-27T08:45:27;36.35;;;11.63;;
32535;SDS011;18974;50.838;4.636;2024-01-27T08:47:53;39.17;;;12.15;;
32535;SDS011;18974;50.838;4.636;2024-01-27T08:50:18;34.30;;;11.82;;
32535;SDS011;18974;50.838;4.636;2024-01-27T08:52:44;38.20;;;11.73;;
32535;SDS011;18974;50.838;4.636;2024-01-27T08:55:11;34.65;;;11.25;;
32535;SDS011;18974;50.838;4.636;2024-01-27T08:57:37;34.95;;;12.20;;
32535;SDS011;18974;50.838;4.636;2024-01-27T09:00:03;32.55;;;11.25;;
32535;SDS011;18974;50.838;4.636;2024-01-27T09:02:29;41.00;;;11.32;;
32535;SDS011;18974;50.838;4.636;2024-01-27T09:04:55;35.80;;;12.43;;
32535;SDS011;18974;50.838;4.636;2024-01-27T09:07:21;31.55;;;11.10;;
32535;SDS011;18974;50.838;4.636;2024-01-27T09:09:47;30.83;;;11.18;;
32535;SDS011;18974;50.838;4.636;2024-01-27T09:12:12;35.88;;;11.95;;
32535;SDS011;18974;50.838;4.636;2024-01-27T09:14:38;32.90;;;10.40;;
32535;SDS011;18974;50.838;4.636;2024-01-27T09:17:04;30.30;;;10.60;;
32535;SDS011;18974;50.838;4.636;2024-01-27T09:19:29;33.20;;;10.63;;
32535;SDS011;18974;50.838;4.636;2024-01-27T09:21:55;34.17;;;9.85;;
32535;SDS011;18974;50.838;4.636;2024-01-27T09:24:21;36.88;;;11.07;;
32535;SDS011;18974;50.838;4.636;2024-01-27T09:26:47;33.30;;;9.15;;
32535;SDS011;18974;50.838;4.636;2024-01-27T09:29:14;24.48;;;8.85;;
32535;SDS011;18974;50.838;4.636;2024-01-27T09:31:40;38.97;;;9.88;;
32535;SDS011;18974;50.838;4.636;2024-01-27T09:34:05;31.95;;;9.38;;
32535;SDS011;18974;50.838;4.636;2024-01-27T09:36:31;30.85;;;9.85;;
32535;SDS011;18974;50.838;4.636;2024-01-27T09:38:57;32.05;;;10.30;;
32535;SDS011;18974;50.838;4.636;2024-01-27T09:41:24;33.53;;;9.75;;
32535;SDS011;18974;50.838;4.636;2024-01-27T09:43:56;35.17;;;10.10;;
32535;SDS011;18974;50.838;4.636;2024-01-27T09:46:25;30.98;;;8.45;;
32535;SDS011;18974;50.838;4.636;2024-01-27T09:48:51;30.08;;;7.88;;
32535;SDS011;18974;50.838;4.636;2024-01-27T09:51:18;27.10;;;8.75;;
32535;SDS011;18974;50.838;4.636;2024-01-27T09:53:45;29.88;;;8.23;;
32535;SDS011;18974;50.838;4.636;2024-01-27T09:56:10;24.83;;;7.38;;
32535;SDS011;18974;50.838;4.636;2024-01-27T09:58:42;26.58;;;8.00;;
32535;SDS011;18974;50.838;4.636;2024-01-27T10:01:15;26.98;;;8.35;;
32535;SDS011;18974;50.838;4.636;2024-01-27T10:03:46;26.50;;;7.30;;
32535;SDS011;18974;50.838;4.636;2024-01-27T10:06:12;23.50;;;8.30;;
32535;SDS011;18974;50.838;4.636;2024-01-27T10:08:39;30.45;;;8.27;;
32535;SDS011;18974;50.838;4.636;2024-01-27T10:11:08;24.33;;;8.07;;
32535;SDS011;18974;50.838;4.636;2024-01-27T10:13:39;29.23;;;7.97;;
32535;SDS011;18974;50.838;4.636;2024-01-27T10:16:06;23.05;;;8.55;;
32535;SDS011;18974;50.838;4.636;2024-01-27T10:18:33;29.35;;;6.28;;
32535;SDS011;18974;50.838;4.636;2024-01-27T10:20:59;24.05;;;5.70;;
32535;SDS011;18974;50.838;4.636;2024-01-27T10:23:25;23.75;;;5.13;;
32535;SDS011;18974;50.838;4.636;2024-01-27T10:25:52;15.65;;;4.82;;
32535;SDS011;18974;50.838;4.636;2024-01-27T10:28:18;16.02;;;4.88;;
32535;SDS011;18974;50.838;4.636;2024-01-27T10:30:44;18.77;;;4.95;;
32535;SDS011;18974;50.838;4.636;2024-01-27T10:33:13;20.63;;;4.35;;
32535;SDS011;18974;50.838;4.636;2024-01-27T10:35:45;15.77;;;5.00;;
32535;SDS011;18974;50.838;4.636;2024-01-27T10:38:11;18.83;;;5.13;;
32535;SDS011;18974;50.838;4.636;2024-01-27T10:40:36;21.85;;;4.93;;
32535;SDS011;18974;50.838;4.636;2024-01-27T10:43:07;23.65;;;5.15;;
32535;SDS011;18974;50.838;4.636;2024-01-27T10:45:34;17.25;;;5.07;;
32535;SDS011;18974;50.838;4.636;2024-01-27T10:48:02;21.65;;;4.45;;
32535;SDS011;18974;50.838;4.636;2024-01-27T10:50:29;16.23;;;4.28;;
32535;SDS011;18974;50.838;4.636;2024-01-27T10:52:58;15.55;;;4.32;;
32535;SDS011;18974;50.838;4.636;2024-01-27T10:55:28;39.20;;;13.70;;
32535;SDS011;18974;50.838;4.636;2024-01-27T10:57:54;19.10;;;5.13;;
32535;SDS011;18974;50.838;4.636;2024-01-27T11:00:21;18.33;;;4.72;;
32535;SDS011;18974;50.838;4.636;2024-01-27T11:02:49;18.90;;;5.43;;
32535;SDS011;18974;50.838;4.636;2024-01-27T11:05:18;25.05;;;7.05;;
32535;SDS011;18974;50.838;4.636;2024-01-27T11:07:46;18.58;;;4.60;;
32535;SDS011;18974;50.838;4.636;2024-01-27T11:10:12;17.88;;;4.35;;
32535;SDS011;18974;50.838;4.636;2024-01-27T11:12:38;14.88;;;4.57;;
32535;SDS011;18974;50.838;4.636;2024-01-27T11:15:04;17.83;;;4.15;;
32535;SDS011;18974;50.838;4.636;2024-01-27T11:17:38;18.67;;;4.45;;
32535;SDS011;18974;50.838;4.636;2024-01-27T11:20:08;15.82;;;4.40;;
32535;SDS011;18974;50.838;4.636;2024-01-27T11:22:36;14.15;;;4.35;;
32535;SDS011;18974;50.838;4.636;2024-01-27T11:25:06;16.30;;;3.95;;
32535;SDS011;18974;50.838;4.636;2024-01-27T11:27:35;14.00;;;4.57;;
32535;SDS011;18974;50.838;4.636;2024-01-27T11:30:01;12.80;;;4.35;;
32535;SDS011;18974;50.838;4.636;2024-01-27T11:32:27;18.75;;;4.35;;
32535;SDS011;18974;50.838;4.636;2024-01-27T11:34:53;17.38;;;4.28;;
32535;SDS011;18974;50.838;4.636;2024-01-27T11:37:18;21.58;;;5.68;;
32535;SDS011;18974;50.838;4.636;2024-01-27T11:39:50;17.77;;;5.00;;
32535;SDS011;18974;50.838;4.636;2024-01-27T11:42:19;17.35;;;4.50;;
32535;SDS011;18974;50.838;4.636;2024-01-27T11:44:45;13.07;;;4.30;;
32535;SDS011;18974;50.838;4.636;2024-01-27T11:47:14;18.25;;;4.78;;
32535;SDS011;18974;50.838;4.636;2024-01-27T11:49:42;20.15;;;4.60;;
32535;SDS011;18974;50.838;4.636;2024-01-27T11:52:09;14.82;;;4.40;;
32535;SDS011;18974;50.838;4.636;2024-01-27T11:54:35;16.85;;;4.53;;
32535;SDS011;18974;50.838;4.636;2024-01-27T11:57:03;15.27;;;4.50;;
32535;SDS011;18974;50.838;4.636;2024-01-27T11:59:29;14.25;;;3.90;;
32535;SDS011;18974;50.838;4.636;2024-01-27T12:01:55;11.73;;;3.47;;
32535;SDS011;18974;50.838;4.636;2024-01-27T12:04:20;18.73;;;5.13;;
32535;SDS011;18974;50.838;4.636;2024-01-27T12:06:46;20.35;;;3.78;;
32535;SDS011;18974;50.838;4.636;2024-01-27T12:09:13;15.25;;;4.22;;
32535;SDS011;18974;50.838;4.636;2024-01-27T12:11:41;17.08;;;4.68;;
32535;SDS011;18974;50.838;4.636;2024-01-27T12:14:07;15.77;;;4.38;;
32535;SDS011;18974;50.838;4.636;2024-01-27T12:16:33;19.40;;;4.45;;
32535;SDS011;18974;50.838;4.636;2024-01-27T12:18:59;19.35;;;4.32;;
32535;SDS011;18974;50.838;4.636;2024-01-27T12:21:25;13.77;;;4.10;;
32535;SDS011;18974;50.838;4.636;2024-01-27T12:23:51;14.82;;;3.75;;
32535;SDS011;18974;50.838;4.636;2024-01-27T12:26:17;12.57;;;3.28;;
32535;SDS011;18974;50.838;4.636;2024-01-27T12:28:45;16.98;;;4.40;;
32535;SDS011;18974;50.838;4.636;2024-01-27T12:31:12;18.67;;;3.97;;
32535;SDS011;18974;50.838;4.636;2024-01-27T12:33:38;16.58;;;4.35;;
32535;SDS011;18974;50.838;4.636;2024-01-27T12:36:07;20.75;;;4.63;;
32535;SDS011;18974;50.838;4.636;2024-01-27T12:38:33;11.45;;;3.50;;
32535;SDS011;18974;50.838;4.636;2024-01-27T12:40:58;17.50;;;3.80;;
32535;SDS011;18974;50.838;4.636;2024-01-27T12:43:24;17.38;;;4.18;;
32535;SDS011;18974;50.838;4.636;2024-01-27T12:45:50;17.60;;;4.15;;
32535;SDS011;18974;50.838;4.636;2024-01-27T12:48:15;17.08;;;3.47;;
32535;SDS011;18974;50.838;4.636;2024-01-27T12:50:41;15.68;;;3.47;;
32535;SDS011;18974;50.838;4.636;2024-01-27T12:53:07;10.70;;;3.42;;
32535;SDS011;18974;50.838;4.636;2024-01-27T12:55:33;18.25;;;4.03;;
32535;SDS011;18974;50.838;4.636;2024-01-27T12:57:59;13.30;;;3.60;;
32535;SDS011;18974;50.838;4.636;2024-01-27T13:00:24;14.73;;;3.83;;
32535;SDS011;18974;50.838;4.636;2024-01-27T13:02:50;11.75;;;3.03;;
32535;SDS011;18974;50.838;4.636;2024-01-27T13:05:16;14.70;;;4.03;;
32535;SDS011;18974;50.838;4.636;2024-01-27T13:07:42;20.65;;;3.65;;
32535;SDS011;18974;50.838;4.636;2024-01-27T13:10:10;15.48;;;3.67;;
32535;SDS011;18974;50.838;4.636;2024-01-27T13:12:35;15.05;;;3.60;;
32535;SDS011;18974;50.838;4.636;2024-01-27T13:15:01;10.27;;;3.65;;
32535;SDS011;18974;50.838;4.636;2024-01-27T13:17:27;14.27;;;3.92;;
32535;SDS011;18974;50.838;4.636;2024-01-27T13:19:53;11.32;;;2.95;;
32535;SDS011;18974;50.838;4.636;2024-01-27T13:22:18;9.48;;;3.47;;
32535;SDS011;18974;50.838;4.636;2024-01-27T13:24:49;12.35;;;3.53;;
32535;SDS011;18974;50.838;4.636;2024-01-27T13:27:14;19.10;;;3.67;;
32535;SDS011;18974;50.838;4.636;2024-01-27T13:29:40;16.95;;;3.58;;
32535;SDS011;18974;50.838;4.636;2024-01-27T13:32:06;15.80;;;3.40;;
32535;SDS011;18974;50.838;4.636;2024-01-27T13:34:32;15.52;;;3.85;;
32535;SDS011;18974;50.838;4.636;2024-01-27T13:36:58;14.63;;;3.25;;
32535;SDS011;18974;50.838;4.636;2024-01-27T13:39:25;22.77;;;3.42;;
32535;SDS011;18974;50.838;4.636;2024-01-27T13:41:50;12.82;;;2.67;;
32535;SDS011;18974;50.838;4.636;2024-01-27T13:44:16;10.70;;;2.80;;
32535;SDS011;18974;50.838;4.636;2024-01-27T13:46:42;12.35;;;3.00;;
32535;SDS011;18974;50.838;4.636;2024-01-27T13:49:08;10.93;;;3.15;;
32535;SDS011;18974;50.838;4.636;2024-01-27T13:51:33;12.82;;;2.92;;
32535;SDS011;18974;50.838;4.636;2024-01-27T13:53:59;9.48;;;2.83;;
32535;SDS011;18974;50.838;4.636;2024-01-27T13:56:25;12.32;;;3.63;;
32535;SDS011;18974;50.838;4.636;2024-01-27T13:58:51;13.25;;;3.20;;
32535;SDS011;18974;50.838;4.636;2024-01-27T14:01:17;11.35;;;2.85;;
32535;SDS011;18974;50.838;4.636;2024-01-27T14:03:42;11.05;;;2.83;;
32535;SDS011;18974;50.838;4.636;2024-01-27T14:06:08;15.23;;;3.75;;
32535;SDS011;18974;50.838;4.636;2024-01-27T14:08:37;11.48;;;3.20;;
32535;SDS011;18974;50.838;4.636;2024-01-27T14:11:04;12.82;;;3.15;;
32535;SDS011;18974;50.838;4.636;2024-01-27T14:13:29;18.85;;;3.65;;
32535;SDS011;18974;50.838;4.636;2024-01-27T14:15:55;9.82;;;2.50;;
32535;SDS011;18974;50.838;4.636;2024-01-27T14:18:21;10.25;;;2.80;;
32535;SDS011;18974;50.838;4.636;2024-01-27T14:20:47;12.13;;;3.10;;